Flight Track Log - Related Links

Times and Time Zones

All times are in EDT time to prevent confusion due to time zone crossing. See the UAL4336 flight status page for this flight to view local times or setup timezone preferences in your user account.

Time Position Orientation Groundspeed Altitude Reporting Facility
EDT Latitude Longitude Course Direction KTS MPH feet Rate Location/Type
Tue 03:05:09 PM 40.7167 -74.1500 217° Southwest 168 193 1,600  Level New York TRACON
Tue 03:06:15 PM 40.7667 -74.1000 37° Northeast 245 282 3,700 1,619 Climbing New York TRACON
Tue 03:07:00 PM 40.6157 -74.6139 257° West  Level FlightAware Approximate
Tue 03:07:15 PM 40.8000 -74.1667 303° West 273 314 5,000  Level New York TRACON
Tue 03:08:00 PM 40.5891 -74.7654 258° West  Level FlightAware Approximate
Tue 03:08:09 PM 40.7667 -74.2500 242° Southwest 278 320 7,400  Level New York TRACON
Tue 03:09:00 PM 40.5667 -74.9175 270° West  Level FlightAware Approximate
Tue 03:09:09 PM 40.7333 -74.3500 246° West 289 333 10,300  Level New York TRACON
Tue 03:10:00 PM 40.5256 -75.0577 217° Southwest  Level FlightAware Approximate
Tue 03:11:20 PM 40.7075 -74.6119 263° West 351 404 13,800  Level New York Center
Tue 03:12:18 PM 40.6683 -74.7244 245° Southwest 374 430 15,300 1,627 Climbing New York Center
Tue 03:13:18 PM 40.6175 -74.8692 245° Southwest 392 451 17,000 1,500 Climbing New York Center
Tue 03:14:18 PM 40.5692 -75.0003 244° Southwest 398 458 18,300 1,388 Climbing New York Center
Tue 03:15:19 PM 40.5022 -75.1217 234° Southwest 403 464 19,800 1,563 Climbing New York Center
Tue 03:16:17 PM 40.4336 -75.2319 231° Southwest 403 464 21,400 1,261 Climbing New York Center
Tue 03:17:18 PM 40.3647 -75.3417 231° Southwest 403 464 22,300 992 Climbing New York Center
Tue 03:18:18 PM 40.2936 -75.4542 230° Southwest 403 464 23,400 1,140 Climbing New York Center
Tue 03:19:19 PM 40.2267 -75.5611 231° Southwest 403 464 24,600 1,210 Climbing New York Center
Tue 03:20:17 PM 40.1658 -75.6764 235° Southwest 398 458 25,800 1,210 Climbing New York Center
Tue 03:21:18 PM 40.1089 -75.7919 237° Southwest 387 445 27,000 733 Climbing New York Center
Tue 03:23:17 PM 39.9922 -76.0247 237° Southwest 382 440 28,000 333 Climbing New York Center
Tue 03:24:18 PM 39.9261 -76.1497 235° Southwest 413 475 28,000  Level New York Center
Tue 03:26:04 PM 39.7883 -76.3692 231° Southwest 447 514 28,000 651 Level Washington Center
Tue 03:27:04 PM 39.7125 -76.4844 229° Southwest 447 514 29,800 1,388 Climbing Washington Center
Tue 03:28:05 PM 39.6428 -76.5858 228° Southwest 436 502 30,800 942 Climbing Washington Center
Tue 03:29:05 PM 39.5689 -76.6953 229° Southwest 426 490 31,700 908 Climbing Washington Center
Tue 03:30:04 PM 39.4950 -76.8097 230° Southwest 421 484 32,600 908 Climbing Washington Center
Tue 03:31:04 PM 39.4189 -76.9214 229° Southwest 426 490 33,500 885 Climbing Washington Center
Tue 03:32:06 PM 39.3425 -77.0353 229° Southwest 426 490 34,400 934 Climbing Washington Center
Tue 03:33:06 PM 39.2658 -77.1517 230° Southwest 426 490 35,400 814 Climbing Washington Center
Tue 03:34:04 PM 39.1872 -77.2653 228° Southwest 426 490 36,000 305 Climbing Washington Center
Tue 03:35:04 PM 39.1064 -77.3839 229° Southwest 431 496 36,000  Level Washington Center
Tue 03:36:04 PM 39.0233 -77.5072 229° Southwest 437 503 36,000  Level Washington Center
Tue 03:37:05 PM 38.9397 -77.6333 230° Southwest 465 535 36,000  Level Washington Center
Tue 03:38:06 PM 38.8458 -77.7639 227° Southwest 465 535 36,000  Level Washington Center
Tue 03:39:06 PM 38.7581 -77.8944 229° Southwest 471 542 36,000  Level Washington Center
Tue 03:40:07 PM 38.6764 -78.0089 228° Southwest 471 542 36,000  Level Washington Center
Tue 03:41:05 PM 38.5928 -78.1311 229° Southwest 465 535 36,000  Level Washington Center
Tue 03:42:05 PM 38.5086 -78.2503 228° Southwest 460 529 36,000  Level Washington Center
Tue 03:43:06 PM 38.4225 -78.3744 229° Southwest 460 529 36,000  Level Washington Center
Tue 03:44:04 PM 38.3383 -78.4956 228° Southwest 455 524 36,000  Level Washington Center
Tue 03:45:05 PM 38.2647 -78.6064 230° Southwest 455 524 36,000  Level Washington Center
Tue 03:46:06 PM 38.1717 -78.7375 228° Southwest 455 524 36,000  Level Washington Center
Tue 03:47:05 PM 38.0850 -78.8578 228° Southwest 455 524 36,000  Level Washington Center
Tue 03:48:05 PM 38.0003 -78.9781 228° Southwest 460 529 36,000  Level Washington Center
Tue 03:49:04 PM 37.9136 -79.0953 227° Southwest 460 529 36,000  Level Washington Center
Tue 03:50:05 PM 37.8372 -79.2047 229° Southwest 460 529 36,000  Level Washington Center
Tue 03:51:05 PM 37.7503 -79.3239 227° Southwest 460 529 36,000  Level Washington Center
Tue 03:52:06 PM 37.6544 -79.4531 227° Southwest 460 529 36,000  Level Washington Center
Tue 03:53:06 PM 37.5778 -79.5619 228° Southwest 460 529 36,000  Level Washington Center
Tue 03:54:05 PM 37.4839 -79.6903 227° Southwest 460 529 36,000  Level Washington Center
Tue 03:55:06 PM 37.4006 -79.8036 227° Southwest 468 539 36,000  Level Washington Center
Tue 03:58:06 PM 37.1214 -80.1761 227° Southwest 467 537 36,000  Level Atlanta Center
Tue 03:59:06 PM 37.0433 -80.2786 226° Southwest 475 547 36,000  Level Atlanta Center
Tue 04:00:06 PM 36.9572 -80.3969 228° Southwest 469 540 36,000  Level Atlanta Center
Tue 04:01:06 PM 36.8708 -80.5125 227° Southwest 463 533 36,000  Level Atlanta Center
Tue 04:02:06 PM 36.7764 -80.6361 226° Southwest 457 526 36,000  Level Atlanta Center
Tue 04:03:06 PM 36.7042 -80.7347 228° Southwest 449 517 36,000  Level Atlanta Center
Tue 04:04:06 PM 36.6175 -80.8472 226° Southwest 449 517 36,000  Level Atlanta Center
Tue 04:05:06 PM 36.5328 -80.9617 227° Southwest 455 524 36,000  Level Atlanta Center
Tue 04:06:06 PM 36.4378 -81.0892 227° Southwest 455 524 36,000  Level Atlanta Center
Tue 04:07:06 PM 36.3508 -81.2031 227° Southwest 460 529 36,000  Level Atlanta Center
Tue 04:08:06 PM 36.2639 -81.3169 227° Southwest 460 529 36,000  Level Atlanta Center
Tue 04:09:06 PM 36.1767 -81.4306 226° Southwest 460 529 36,000  Level Atlanta Center
Tue 04:10:06 PM 36.0914 -81.5464 228° Southwest 460 529 36,000  Level Atlanta Center
Tue 04:11:06 PM 36.0039 -81.6567 226° Southwest 454 522 36,000  Level Atlanta Center
Tue 04:12:06 PM 35.9164 -81.7697 226° Southwest 460 529 36,000  Level Atlanta Center
Tue 04:13:06 PM 35.8286 -81.8822 226° Southwest 460 529 36,000 -300 Level Atlanta Center
Tue 04:14:06 PM 35.7408 -81.9944 226° Southwest 460 529 35,400 -500 Descending Atlanta Center
Tue 04:15:06 PM 35.6508 -82.1092 226° Southwest 460 529 35,000 -200 Descending Atlanta Center
Tue 04:16:06 PM 35.5631 -82.2236 227° Southwest 460 529 35,000 -950 Level Atlanta Center
Tue 04:17:06 PM 35.4728 -82.3328 225° Southwest 460 529 33,100 -2,100 Descending Atlanta Center
Tue 04:18:06 PM 35.3781 -82.4339 221° Southwest 460 529 30,800 -1,900 Descending Atlanta Center
Tue 04:19:06 PM 35.2794 -82.5453 223° Southwest 465 535 29,300 -1,450 Descending Atlanta Center
Tue 04:20:06 PM 35.1847 -82.6486 222° Southwest 465 535 27,900 -1,450 Descending Atlanta Center
Tue 04:21:06 PM 35.0856 -82.7544 221° Southwest 471 542 26,400 -1,500 Descending Atlanta Center
Tue 04:22:06 PM 34.9867 -82.8675 223° Southwest 471 542 24,900 -1,500 Descending Atlanta Center
Tue 04:23:06 PM 34.8875 -82.9728 221° Southwest 476 548 23,400 -1,500 Descending Atlanta Center
Tue 04:24:06 PM 34.7903 -83.0803 222° Southwest 476 548 21,900 -1,500 Descending Atlanta Center
Tue 04:25:06 PM 34.6969 -83.1822 222° Southwest 462 532 20,400 -1,350 Descending Atlanta Center
Tue 04:26:06 PM 34.6122 -83.2792 223° Southwest 437 503 19,200 -1,100 Descending Atlanta Center
Tue 04:27:06 PM 34.5231 -83.3756 222° Southwest 437 503 18,200 -900 Descending Atlanta Center
Tue 04:28:06 PM 34.4294 -83.4722 220° Southwest 437 503 17,400 -900 Descending Atlanta Center
Tue 04:29:06 PM 34.3486 -83.5658 224° Southwest 421 484 16,400 -900 Descending Atlanta Center
Tue 04:30:06 PM 34.2717 -83.6467 221° Southwest 415 478 15,600 -900 Descending Atlanta Center
Tue 04:31:06 PM 34.1842 -83.7425 222° Southwest 415 478 14,600 -800 Descending Atlanta Center
Tue 04:32:06 PM 34.1031 -83.8281 221° Southwest 408 470 14,000 -350 Descending Atlanta Center
Tue 04:33:06 PM 34.0217 -83.9161 222° Southwest 403 464 13,900 -100 Descending Atlanta Center
Tue 04:34:06 PM 33.9403 -84.0036 222° Southwest 403 464 13,800 -550 Descending Atlanta Center
Tue 04:35:06 PM 33.8506 -84.0989 221° Southwest 403 464 12,800 -900 Descending Atlanta Center
Tue 04:36:06 PM 33.7608 -84.1736 215° Southwest 398 458 12,000 -450 Descending Atlanta Center
Tue 04:37:06 PM 33.7294 -84.2736 249° West 335 386 11,900 -650 Descending Atlanta Center
Tue 04:38:06 PM 33.7292 -84.3636 270° West 289 333 10,700 -1,750 Descending Atlanta Center
Tue 04:39:06 PM 33.7289 -84.4533 270° West 278 320 8,400 -2,350 Descending Atlanta Center
Tue 04:40:06 PM 33.7306 -84.5408 271° West 270 311 6,000 -1,468 Descending Atlanta Center
Tue 04:41:25 PM 33.7333 -84.6500 272° West 220 253 5,000 -451 Descending Atlanta TRACON
Tue 04:42:19 PM 33.7000 -84.6833 220° Southwest 210 242 5,000 -158 Level Atlanta TRACON
Tue 04:43:19 PM 33.6667 -84.6500 140° Southeast 172 198 4,700 -750 Descending Atlanta TRACON
Tue 04:44:19 PM 33.6500 -84.6000 112° Southeast 178 205 3,500 -800 Descending Atlanta TRACON
Tue 04:45:19 PM 33.6667 -84.5500 68° East 189 217 3,100 250 Descending Atlanta TRACON
Tue 04:46:19 PM 33.7167 -84.5667 345° North 208 239 4,000 450 Climbing Atlanta TRACON
Tue 04:47:19 PM 33.7167 -84.6333 270° West 202 232 4,000  Level Atlanta TRACON
Tue 04:48:19 PM 33.7167 -84.7000 270° West 215 247 4,000 -53 Level Atlanta TRACON
Tue 04:49:13 PM 33.6833 -84.6667 140° Southeast 184 212 3,900 -105 Descending Atlanta TRACON
Tue 04:50:13 PM 33.6667 -84.6167 112° Southeast 180 207 3,800 -100 Descending Atlanta TRACON

Login

Don't have an account? Register now (free) for customized features, flight alerts, and more!